Change the Weather History Date:

Sunday, January 19, 2014

  Actual Average (KORF) Record (KORF)
Temperature  
Mean Temperature 38 °F 40 °F  
Max Temperature 51 °F 48 °F 73 °F (1907)
Min Temperature 24 °F 33 °F 5 °F (1994)
Degree Days  
Heating Degree Days 28 25  
Month to date heating degree days 470  
Since 1 July heating degree days 1649  
Cooling Degree Days 0 0  
Month to date cooling degree days 0  
Year to date cooling degree days 0  
Moisture  
Dew Point 24 °F    
Average Humidity 59    
Maximum Humidity 80    
Minimum Humidity 35    
Precipitation  
Precipitation 0.00 in 0.10 in 2.34 in (1987)
Month to date precipitation 2.09  
Year to date precipitation 2.09  
Snow  
Snow 0.00 in 0.10 in 9.80 in (1893)
Month to date snowfall 1.6  
Since 1 July snowfall 2.8  
Snow Depth -    
Sea Level Pressure  
Sea Level Pressure 29.93 in    
Wind  
Wind Speed 7 mph (SSW)    
Max Wind Speed 15 mph    
Max Gust Speed 21 mph    
Visibility 10 miles    
Events      
T = Trace of Precipitation, MM = Missing Value Source: NWS Daily Summary

Daily Weather History Graph

Daily Weather History Graph

Search for Another Location

Airport or City:

Trip Planner

Search our weather history database for the weather conditions in past years. The results will help you decide how hot, cold, wet, or windy it might be!

Date:

Astronomy

Jan. 19, 2014 Rise Set
Actual Time 7:15 AM EST 5:17 PM EST
Civil Twilight 6:47 AM EST 5:45 PM EST
Nautical Twilight 6:15 AM EST 6:16 PM EST
Astronomical Twilight 5:44 AM EST 6:47 PM EST
Moon 8:46 PM EST (1/19) 8:50 AM EST (1/19)
Length of Visible Light 10h 57m
Length of Day
10h 01m
Waning Gibbous, 89% of the Moon is Illuminated
Jan 19
Waning Gibbous
Jan 24
Last Quarter
Jan 30
New
Feb 6
First Quarter
Feb 14
Full

Hourly Weather History & Observations

Time (EST) Temp. Windchill Dew Point Humidity Pressure Visibility Wind Dir Wind Speed Gust Speed Precip Events Conditions
12:15 AM 24.8 °F 19.1 °F 17.6 °F 74% 30.03 in 10.0 mi South 4.6 mph - N/A   Clear
12:35 AM 26.6 °F 22.6 °F 19.4 °F 74% 30.03 in 10.0 mi South 3.5 mph - N/A   Clear
12:55 AM 24.8 °F 20.5 °F 19.4 °F 80% 30.03 in 10.0 mi South 3.5 mph - N/A   Clear
1:15 AM 24.8 °F 20.5 °F 17.6 °F 74% 30.03 in 10.0 mi South 3.5 mph - N/A   Clear
1:35 AM 24.8 °F 19.1 °F 19.4 °F 80% 30.03 in 10.0 mi South 4.6 mph - N/A   Clear
1:55 AM 24.8 °F 20.5 °F 19.4 °F 80% 30.03 in 10.0 mi South 3.5 mph - N/A   Clear
2:15 AM 24.8 °F 20.5 °F 17.6 °F 74% 30.02 in 10.0 mi South 3.5 mph - N/A   Clear
2:35 AM 26.6 °F 22.6 °F 19.4 °F 74% 30.02 in 10.0 mi South 3.5 mph - N/A   Clear
2:55 AM 26.6 °F 21.2 °F 21.2 °F 80% 30.01 in 10.0 mi South 4.6 mph - N/A   Scattered Clouds
3:15 AM 28.4 °F 23.3 °F 21.2 °F 74% 30.01 in 10.0 mi South 4.6 mph - N/A   Clear
3:35 AM 28.4 °F 22.2 °F 21.2 °F 74% 30.00 in 10.0 mi South 5.8 mph - N/A   Clear
3:55 AM 28.4 °F 22.2 °F 21.2 °F 74% 30.00 in 10.0 mi South 5.8 mph - N/A   Clear
4:15 AM 28.4 °F 23.3 °F 21.2 °F 74% 29.99 in 10.0 mi South 4.6 mph - N/A   Clear
4:35 AM 28.4 °F 23.3 °F 21.2 °F 74% 29.98 in 10.0 mi South 4.6 mph - N/A   Clear
4:55 AM 28.4 °F 22.2 °F 21.2 °F 74% 29.97 in 10.0 mi South 5.8 mph - N/A   Scattered Clouds
5:15 AM 30.2 °F 22.6 °F 21.2 °F 69% 29.97 in 10.0 mi South 8.1 mph - N/A   Mostly Cloudy
5:35 AM 30.2 °F 24.3 °F 21.2 °F 69% 29.97 in 10.0 mi SSW 5.8 mph - N/A   Mostly Cloudy
5:55 AM 30.2 °F 22.6 °F 21.2 °F 69% 29.96 in 10.0 mi SSW 8.1 mph - N/A   Mostly Cloudy
6:15 AM 30.2 °F 23.4 °F 23.0 °F 75% 29.96 in 10.0 mi South 6.9 mph - N/A   Mostly Cloudy
6:35 AM 32.0 °F 24.8 °F 23.0 °F 69% 29.96 in 10.0 mi South 8.1 mph - N/A   Mostly Cloudy
6:55 AM 32.0 °F 24.8 °F 23.0 °F 69% 29.95 in 10.0 mi South 8.1 mph - N/A   Mostly Cloudy
7:15 AM 32.0 °F 23.6 °F 23.0 °F 69% 29.95 in 10.0 mi South 10.4 mph - N/A   Scattered Clouds
7:35 AM 32.0 °F 24.8 °F 23.0 °F 69% 29.96 in 10.0 mi South 8.1 mph - N/A   Clear
7:55 AM 33.8 °F 26.4 °F 23.0 °F 65% 29.96 in 10.0 mi South 9.2 mph - N/A   Clear
8:15 AM 33.8 °F 26.4 °F 23.0 °F 65% 29.96 in 10.0 mi SSW 9.2 mph - N/A   Clear
8:35 AM 33.8 °F 27.0 °F 24.8 °F 70% 29.96 in 10.0 mi South 8.1 mph - N/A   Clear
8:55 AM 35.6 °F 28.6 °F 24.8 °F 65% 29.96 in 10.0 mi South 9.2 mph - N/A   Clear
9:15 AM 37.4 °F 30.8 °F 24.8 °F 60% 29.96 in 10.0 mi SSW 9.2 mph - N/A   Clear
9:35 AM 39.2 °F 33.0 °F 24.8 °F 56% 29.97 in 10.0 mi SSW 9.2 mph - N/A   Clear
9:55 AM 39.2 °F 32.5 °F 23.0 °F 52% 29.96 in 10.0 mi SW 10.4 mph - N/A   Clear
10:15 AM 41.0 °F 33.1 °F 23.0 °F 49% 29.96 in 10.0 mi SW 15.0 mph - N/A   Clear
10:35 AM 42.8 °F 36.2 °F 21.2 °F 42% 29.96 in 10.0 mi SW 12.7 mph 20.7 mph N/A   Clear
10:55 AM 42.8 °F 35.8 °F 21.2 °F 42% 29.95 in 10.0 mi SW 13.8 mph 18.4 mph N/A   Clear
11:15 AM 44.6 °F 38.8 °F 21.2 °F 39% 29.94 in 10.0 mi SW 11.5 mph 18.4 mph N/A   Clear
11:35 AM 44.6 °F 38.8 °F 23.0 °F 43% 29.93 in 10.0 mi SSW 11.5 mph - N/A   Clear
11:55 AM 44.6 °F 38.1 °F 21.2 °F 39% 29.93 in 10.0 mi SW 13.8 mph 17.3 mph N/A   Clear
12:15 PM 46.4 °F 41.1 °F 23.0 °F 40% 29.92 in 10.0 mi WSW 11.5 mph - N/A   Clear
12:35 PM 46.4 °F 41.1 °F 23.0 °F 40% 29.90 in 10.0 mi SW 11.5 mph - N/A   Clear
12:55 PM 48.2 °F - 24.8 °F 40% 29.89 in 10.0 mi SSW 10.4 mph - N/A   Clear
1:15 PM 48.2 °F - 23.0 °F 37% 29.88 in 10.0 mi SSW 10.4 mph - N/A   Clear
1:35 PM 50.0 °F - 23.0 °F 35% 29.87 in 10.0 mi SW 11.5 mph - N/A   Clear
1:55 PM 50.0 °F - 24.8 °F 37% 29.86 in 10.0 mi SSW 12.7 mph - N/A   Clear
2:15 PM 51.8 °F - 24.8 °F 35% 29.85 in 10.0 mi SSW 11.5 mph - N/A   Clear
2:35 PM 51.8 °F - 26.6 °F 38% 29.85 in 10.0 mi SW 10.4 mph 16.1 mph N/A   Clear
2:55 PM 51.8 °F - 24.8 °F 35% 29.85 in 10.0 mi SW 9.2 mph 17.3 mph N/A   Clear
3:15 PM 51.8 °F - 26.6 °F 38% 29.85 in 10.0 mi SW 13.8 mph - N/A   Clear
3:35 PM 51.8 °F - 24.8 °F 35% 29.85 in 10.0 mi SSW 10.4 mph - N/A   Clear
3:55 PM 51.8 °F - 26.6 °F 38% 29.86 in 10.0 mi SW 15.0 mph 20.7 mph N/A   Clear
4:15 PM 51.8 °F - 26.6 °F 38% 29.86 in 10.0 mi SW 11.5 mph 17.3 mph N/A   Clear
4:35 PM 50.0 °F - 26.6 °F 40% 29.87 in 10.0 mi SW 10.4 mph 17.3 mph N/A   Clear
4:55 PM 48.2 °F - 26.6 °F 43% 29.87 in 10.0 mi WSW 6.9 mph - N/A   Clear
5:15 PM 48.2 °F - 26.6 °F 43% 29.88 in 10.0 mi SW 6.9 mph - N/A   Clear
5:35 PM 46.4 °F 44.3 °F 28.4 °F 50% 29.88 in 10.0 mi SW 4.6 mph - N/A   Clear
5:55 PM 46.4 °F 44.3 °F 26.6 °F 46% 29.89 in 10.0 mi SW 4.6 mph - N/A   Clear
6:15 PM 44.6 °F 42.2 °F 28.4 °F 53% 29.89 in 10.0 mi SW 4.6 mph - N/A   Clear
6:35 PM 42.8 °F 40.1 °F 28.4 °F 57% 29.89 in 10.0 mi SW 4.6 mph - N/A   Clear
6:55 PM 42.8 °F 40.1 °F 28.4 °F 57% 29.90 in 10.0 mi SW 4.6 mph - N/A   Clear
7:15 PM 39.2 °F 35.9 °F 26.6 °F 61% 29.90 in 10.0 mi SW 4.6 mph - N/A   Clear
7:55 PM 39.2 °F 37.0 °F 28.4 °F 65% 29.91 in 10.0 mi SSW 3.5 mph - N/A   Clear
8:15 PM 39.2 °F 35.0 °F 26.6 °F 61% 29.91 in 10.0 mi South 5.8 mph - N/A   Clear
8:35 PM 39.2 °F 35.9 °F 28.4 °F 65% 29.91 in 10.0 mi SSW 4.6 mph - N/A   Clear
8:55 PM 39.2 °F 35.9 °F 28.4 °F 65% 29.91 in 10.0 mi SSW 4.6 mph - N/A   Clear
9:15 PM 37.4 °F 32.8 °F 28.4 °F 70% 29.91 in 10.0 mi South 5.8 mph - N/A   Clear
9:35 PM 37.4 °F 34.9 °F 28.4 °F 70% 29.91 in 10.0 mi SSW 3.5 mph - N/A   Clear
9:55 PM 37.4 °F 33.8 °F 28.4 °F 70% 29.91 in 10.0 mi South 4.6 mph - N/A   Clear
10:15 PM 37.4 °F 32.8 °F 28.4 °F 70% 29.91 in 10.0 mi SSW 5.8 mph - N/A   Clear
10:35 PM 37.4 °F 33.8 °F 28.4 °F 70% 29.91 in 10.0 mi SSW 4.6 mph - N/A   Clear
10:55 PM 37.4 °F 33.8 °F 28.4 °F 70% 29.91 in 10.0 mi SSW 4.6 mph - N/A   Clear
11:15 PM 37.4 °F 33.8 °F 28.4 °F 70% 29.90 in 10.0 mi SW 4.6 mph - N/A   Clear
11:35 PM 39.2 °F 35.9 °F 28.4 °F 65% 29.90 in 10.0 mi SW 4.6 mph - N/A   Clear
11:55 PM 39.2 °F 34.2 °F 28.4 °F 65% 29.89 in 10.0 mi SW 6.9 mph - N/A   Clear